Wood River, Nebraska
Current Conditions -  °F | °C
As of 6:53 AM on Sunday 23 Nov 2014 (Local Time) from KHSI Reporting Station
Clear Clear  
Wind Chill: 36°   Ceiling: Unl
Heat Index: 43°   Visibility: 10mi
Dew Point: 38°   Wind: 15mph
Humidity: 82%   Direction: 340°NNW
Pressure: 29.49"   Gusts: NA
Location:  40.82°N, 98.6°W
Report Text: KHSI 231253Z AUTO 34013KT 10SM CLR 06/03 A2949 RMK AO2 SLP990 T00610033
Loading
Personal Weather Stations






























Interactive Weather Map New forecast layout! Learn more

10-Day Weather Forecast

Advertisements
Track Severe Weather on mobile